aviador You're here:

SCAT Decoded Metar

DESIERTO ATACAMA in CHILE
Report Time2018-01-20 05:00:00
UTC Time2018-01-20 05:15:50
Flight Rules vfr VFR
Wind250° at 03 kt
W.Decomp.*RWY 17: 0.5 kt HW 3.0 kt RCW
W.Rank250° ranks 3
Current wind is below 250° avg. (7.8)
Visibility9999 m
Phenomena:N/A
Clouds:N/A
Expected CloudBase > 2,000 ft AGL from Temp-Dew spread
CeilingNone
Temp18°C (ISA +4)
Dew Point13°C (73% RH)
AAT17.9°C
QNH1014 hPa
Density Alt1,345 ft
Elevation669 ft
Report Wrong Elevation
Raw Report
METAR SCAT 200500Z AUTO 25003KT 200V280 9999 // ///017 18/13 Q1014=

Extra information for SCAT:More info

Metar Taf Metar & Taf Last 4 Metars F.Rules Stats Wind Profile Meteogram Temp Stats Airport Information Weather charts Add Link Nearby VenuesMetar ALERT Operation Metar Decoded Social comments